createdAt,value
2017-01-27T00:00:09.207Z,960.29
2017-01-27T00:01:08.925Z,960.31
2017-01-27T00:02:08.697Z,960.28
2017-01-27T00:03:09.250Z,960.31
2017-01-27T00:04:08.551Z,960.29
2017-01-27T00:05:08.908Z,960.38
2017-01-27T00:06:08.661Z,960.35
2017-01-27T00:07:09.367Z,960.33
2017-01-27T00:08:08.987Z,960.30
2017-01-27T00:09:08.555Z,960.33
2017-01-27T00:10:08.925Z,960.40
2017-01-27T00:11:08.580Z,960.35
2017-01-27T00:12:08.890Z,960.37
2017-01-27T00:13:08.641Z,960.34
2017-01-27T00:14:09.269Z,960.33
2017-01-27T00:15:08.952Z,960.32
2017-01-27T00:16:08.607Z,960.34
2017-01-27T00:17:09.042Z,960.32
2017-01-27T00:18:08.920Z,960.34
2017-01-27T00:19:08.823Z,960.30
2017-01-27T00:20:08.726Z,960.29
2017-01-27T00:21:09.397Z,960.26
2017-01-27T00:22:09.171Z,960.27
2017-01-27T00:23:08.980Z,960.17
2017-01-27T00:24:08.478Z,960.20
2017-01-27T00:25:09.086Z,960.22
2017-01-27T00:26:08.980Z,960.27
2017-01-27T00:27:08.850Z,960.24
2017-01-27T00:28:08.757Z,960.28
2017-01-27T00:29:08.551Z,960.29
2017-01-27T00:30:09.182Z,960.23
2017-01-27T00:31:09.040Z,960.26
2017-01-27T00:32:08.768Z,960.26
2017-01-27T00:33:08.591Z,960.23
2017-01-27T00:34:09.150Z,960.27
2017-01-27T00:35:08.943Z,960.27
2017-01-27T00:36:09.295Z,960.21
2017-01-27T00:37:08.919Z,960.20
2017-01-27T00:38:08.784Z,960.24
2017-01-27T00:39:08.894Z,960.26
2017-01-27T00:40:08.745Z,960.28
2017-01-27T00:41:09.437Z,960.29
2017-01-27T00:42:09.009Z,960.30
2017-01-27T00:43:08.730Z,960.29
2017-01-27T00:44:09.464Z,960.30
2017-01-27T00:45:08.787Z,960.30
2017-01-27T00:46:09.037Z,960.30
2017-01-27T00:47:08.898Z,960.27
2017-01-27T00:48:08.826Z,960.29
2017-01-27T00:49:08.502Z,960.31
2017-01-27T00:50:09.232Z,960.33
2017-01-27T00:51:08.919Z,960.28
2017-01-27T00:52:08.676Z,960.26
2017-01-27T00:53:09.322Z,960.33
2017-01-27T00:54:08.755Z,960.33
2017-01-27T00:55:08.658Z,960.27
2017-01-27T00:56:09.324Z,960.32
2017-01-27T00:57:09.116Z,960.32
2017-01-27T00:58:08.517Z,960.27
2017-01-27T00:59:09.130Z,960.26
2017-01-27T01:00:09.082Z,960.25
2017-01-27T01:01:09.065Z,960.27
2017-01-27T01:02:09.003Z,960.23
2017-01-27T01:03:08.734Z,960.20
2017-01-27T01:04:08.857Z,960.17
2017-01-27T01:05:08.731Z,960.17
2017-01-27T01:06:08.974Z,960.15
2017-01-27T01:07:08.367Z,960.22
2017-01-27T01:08:09.337Z,960.19
2017-01-27T01:09:08.763Z,960.15
2017-01-27T01:10:08.447Z,960.13
2017-01-27T01:11:08.713Z,960.10
2017-01-27T01:12:08.772Z,960.09
2017-01-27T01:13:08.502Z,960.11
2017-01-27T01:14:09.155Z,960.12
2017-01-27T01:15:08.837Z,960.13
2017-01-27T01:16:08.436Z,960.15
2017-01-27T01:17:08.731Z,960.17
2017-01-27T01:18:08.769Z,960.13
2017-01-27T01:19:08.584Z,960.21
2017-01-27T01:20:09.200Z,960.13
2017-01-27T01:21:08.838Z,960.20
2017-01-27T01:22:08.739Z,960.21
2017-01-27T01:23:08.569Z,960.29
2017-01-27T01:24:09.350Z,960.19
2017-01-27T01:25:08.640Z,960.20
2017-01-27T01:26:08.863Z,960.18
2017-01-27T01:27:08.497Z,960.19
2017-01-27T01:28:08.880Z,960.19
2017-01-27T01:29:08.812Z,960.14
2017-01-27T01:30:08.617Z,960.12
2017-01-27T01:31:09.162Z,960.11
2017-01-27T01:32:08.922Z,960.12
2017-01-27T01:33:08.488Z,960.07
2017-01-27T01:34:09.126Z,960.05
2017-01-27T01:35:09.004Z,960.07
2017-01-27T01:36:08.697Z,960.11
2017-01-27T01:37:09.024Z,960.10
2017-01-27T01:38:08.461Z,960.15
2017-01-27T01:39:08.878Z,960.11
2017-01-27T01:40:08.693Z,960.12
2017-01-27T01:41:09.098Z,960.10
2017-01-27T01:42:08.891Z,960.15
2017-01-27T01:43:08.981Z,960.15
2017-01-27T01:44:09.033Z,960.12
2017-01-27T01:45:09.131Z,960.09
2017-01-27T01:46:09.052Z,960.09
2017-01-27T01:47:08.871Z,960.06
2017-01-27T01:48:08.735Z,960.12
2017-01-27T01:49:09.129Z,960.11
2017-01-27T01:50:08.613Z,960.14
2017-01-27T01:51:09.237Z,960.06
2017-01-27T01:52:09.161Z,960.09
2017-01-27T01:53:09.166Z,960.07
2017-01-27T01:54:08.892Z,960.10
2017-01-27T01:55:08.811Z,960.06
2017-01-27T01:56:08.078Z,960.07
2017-01-27T01:57:09.030Z,960.12
2017-01-27T01:58:08.743Z,960.05
2017-01-27T01:59:09.489Z,960.07
2017-01-27T02:00:09.114Z,960.08
2017-01-27T02:01:09.032Z,960.07
2017-01-27T02:02:08.710Z,960.05
2017-01-27T02:03:08.797Z,960.07
2017-01-27T02:04:08.657Z,960.03
2017-01-27T02:05:08.978Z,960.02
2017-01-27T02:06:09.150Z,960.11
2017-01-27T02:07:08.810Z,960.12
2017-01-27T02:08:08.640Z,960.13
2017-01-27T02:09:09.265Z,960.07
2017-01-27T02:10:09.292Z,960.06
2017-01-27T02:11:09.188Z,960.11
2017-01-27T02:12:08.906Z,960.10
2017-01-27T02:13:09.042Z,960.11
2017-01-27T02:14:08.511Z,960.13
2017-01-27T02:15:09.130Z,960.09
2017-01-27T02:16:08.850Z,960.09
2017-01-27T02:17:08.852Z,960.08
2017-01-27T02:18:08.589Z,960.12
2017-01-27T02:19:09.418Z,960.06
2017-01-27T02:20:09.012Z,960.05
2017-01-27T02:21:08.809Z,960.03
2017-01-27T02:22:08.848Z,960.08
2017-01-27T02:23:08.868Z,959.97
2017-01-27T02:24:08.733Z,960.02
2017-01-27T02:25:09.312Z,960.01
2017-01-27T02:26:09.116Z,959.95
2017-01-27T02:27:08.588Z,959.95
2017-01-27T02:28:08.641Z,959.92
2017-01-27T02:29:09.281Z,959.89
2017-01-27T02:30:09.174Z,959.89
2017-01-27T02:31:09.031Z,959.88
2017-01-27T02:32:08.629Z,959.93
2017-01-27T02:33:09.021Z,959.90
2017-01-27T02:34:08.960Z,959.87
2017-01-27T02:35:08.813Z,959.89
2017-01-27T02:36:08.705Z,959.86
2017-01-27T02:37:09.055Z,959.86
2017-01-27T02:38:08.391Z,959.84
2017-01-27T02:39:09.115Z,959.87
2017-01-27T02:40:09.087Z,959.83
2017-01-27T02:41:08.793Z,959.85
2017-01-27T02:42:08.605Z,959.83
2017-01-27T02:43:09.495Z,959.78
2017-01-27T02:44:08.931Z,959.82
2017-01-27T02:45:08.712Z,959.79
2017-01-27T02:46:08.767Z,959.79
2017-01-27T02:47:09.164Z,959.80
2017-01-27T02:48:08.991Z,959.72
2017-01-27T02:49:08.887Z,959.68
2017-01-27T02:50:08.689Z,959.69
2017-01-27T02:51:09.281Z,959.64
2017-01-27T02:52:09.185Z,959.65
2017-01-27T02:53:08.906Z,959.68
2017-01-27T02:54:08.636Z,959.68
2017-01-27T02:55:09.435Z,959.70
2017-01-27T02:56:08.967Z,959.64
2017-01-27T02:57:08.643Z,959.65
2017-01-27T02:58:09.407Z,959.63
2017-01-27T02:59:09.446Z,959.68
2017-01-27T03:00:09.236Z,959.63
2017-01-27T03:01:08.992Z,959.59
2017-01-27T03:02:08.892Z,959.61
2017-01-27T03:03:08.656Z,959.61
2017-01-27T03:04:09.417Z,959.64
2017-01-27T03:05:09.037Z,959.60
2017-01-27T03:06:08.956Z,959.63
2017-01-27T03:07:08.561Z,959.61
2017-01-27T03:08:08.940Z,959.56
2017-01-27T03:09:08.888Z,959.57
2017-01-27T03:10:08.725Z,959.54
2017-01-27T03:11:09.545Z,959.50
2017-01-27T03:12:09.299Z,959.51
2017-01-27T03:13:08.752Z,959.49
2017-01-27T03:14:08.744Z,959.48
2017-01-27T03:15:09.442Z,959.51
2017-01-27T03:16:09.256Z,959.53
2017-01-27T03:17:09.103Z,959.51
2017-01-27T03:18:08.944Z,959.50
2017-01-27T03:19:08.702Z,959.50
2017-01-27T03:20:09.288Z,959.46
2017-01-27T03:21:09.132Z,959.50
2017-01-27T03:22:08.449Z,959.45
2017-01-27T03:23:08.497Z,959.48
2017-01-27T03:24:09.061Z,959.53
2017-01-27T03:25:08.946Z,959.43
2017-01-27T03:26:08.889Z,959.49
2017-01-27T03:27:08.703Z,959.51
2017-01-27T03:28:09.470Z,959.51
2017-01-27T03:29:08.935Z,959.52
2017-01-27T03:30:08.660Z,959.46
2017-01-27T03:31:09.350Z,959.41
2017-01-27T03:32:08.985Z,959.48
2017-01-27T03:33:08.894Z,959.46
2017-01-27T03:34:08.375Z,959.43
2017-01-27T03:35:08.533Z,959.45
2017-01-27T03:36:09.293Z,959.46
2017-01-27T03:37:08.892Z,959.44
2017-01-27T03:38:08.487Z,959.44
2017-01-27T03:39:09.248Z,959.45
2017-01-27T03:40:08.907Z,959.43
2017-01-27T03:41:08.752Z,959.44
2017-01-27T03:42:09.542Z,959.50
2017-01-27T03:43:09.314Z,959.62
2017-01-27T03:44:09.209Z,959.53
2017-01-27T03:45:08.882Z,959.56
2017-01-27T03:46:08.637Z,959.65
2017-01-27T03:47:09.250Z,959.67
2017-01-27T03:48:08.983Z,959.74
2017-01-27T03:49:08.791Z,959.79
2017-01-27T03:50:08.604Z,959.73
2017-01-27T03:51:09.344Z,959.77
2017-01-27T03:52:09.118Z,959.74
2017-01-27T03:53:08.975Z,959.72
2017-01-27T03:54:08.712Z,959.74
2017-01-27T03:55:09.266Z,959.67
2017-01-27T03:56:08.843Z,959.68
2017-01-27T03:57:08.408Z,959.69
2017-01-27T03:58:09.253Z,959.65
2017-01-27T03:59:09.064Z,959.62
2017-01-27T04:00:08.691Z,959.63
2017-01-27T04:01:09.424Z,959.68
2017-01-27T04:02:09.154Z,959.63
2017-01-27T04:03:09.031Z,959.64
2017-01-27T04:04:08.467Z,959.60
2017-01-27T04:05:09.262Z,959.62
2017-01-27T04:06:08.852Z,959.57
2017-01-27T04:07:08.734Z,959.57
2017-01-27T04:08:09.531Z,959.58
2017-01-27T04:09:08.948Z,959.56
2017-01-27T04:10:08.745Z,959.57
2017-01-27T04:11:09.541Z,959.58
2017-01-27T04:12:09.091Z,959.49
2017-01-27T04:13:09.012Z,959.48
2017-01-27T04:14:08.599Z,959.48
2017-01-27T04:15:09.199Z,959.45
2017-01-27T04:16:08.812Z,959.57
2017-01-27T04:17:08.531Z,959.55
2017-01-27T04:18:09.214Z,959.55
2017-01-27T04:19:08.965Z,959.54
2017-01-27T04:20:08.792Z,959.63
2017-01-27T04:21:08.535Z,959.57
2017-01-27T04:22:08.923Z,959.57
2017-01-27T04:23:08.518Z,959.59
2017-01-27T04:24:09.201Z,959.53
2017-01-27T04:25:08.890Z,959.53
2017-01-27T04:26:08.621Z,959.56
2017-01-27T04:27:09.145Z,959.55
2017-01-27T04:28:08.787Z,959.55
2017-01-27T04:29:08.277Z,959.54
2017-01-27T04:30:08.965Z,959.53
2017-01-27T04:31:08.609Z,959.55
2017-01-27T04:32:08.951Z,959.54
2017-01-27T04:33:08.634Z,959.56
2017-01-27T04:34:09.125Z,959.60
2017-01-27T04:35:08.785Z,959.56
2017-01-27T04:36:08.608Z,959.56
2017-01-27T04:37:08.932Z,959.68
2017-01-27T04:38:08.452Z,959.58
2017-01-27T04:39:09.247Z,959.59
2017-01-27T04:40:08.864Z,959.59
2017-01-27T04:41:08.526Z,959.57
2017-01-27T04:42:09.223Z,959.62
2017-01-27T04:43:09.117Z,959.59
2017-01-27T04:44:09.054Z,959.55
2017-01-27T04:45:08.681Z,959.61
2017-01-27T04:46:09.262Z,959.64
2017-01-27T04:47:09.009Z,959.65
2017-01-27T04:48:08.554Z,959.66
2017-01-27T04:49:09.056Z,959.63
2017-01-27T04:50:08.474Z,959.63
2017-01-27T04:51:09.064Z,959.61
2017-01-27T04:52:08.726Z,959.62
2017-01-27T04:53:09.401Z,959.66
2017-01-27T04:54:09.146Z,959.68
2017-01-27T04:55:08.791Z,959.63
2017-01-27T04:56:08.495Z,959.56
2017-01-27T04:57:09.375Z,959.61
2017-01-27T04:58:08.999Z,959.54
2017-01-27T04:59:08.630Z,959.52
2017-01-27T05:00:09.035Z,959.54
2017-01-27T05:01:08.556Z,959.53
2017-01-27T05:02:09.189Z,959.50
2017-01-27T05:03:08.480Z,959.51
2017-01-27T05:04:09.067Z,959.49
2017-01-27T05:05:08.694Z,959.54
2017-01-27T05:06:09.251Z,959.58
2017-01-27T05:07:08.632Z,959.52
2017-01-27T05:08:08.947Z,959.50
2017-01-27T05:09:08.436Z,959.56
2017-01-27T05:10:08.996Z,959.55
2017-01-27T05:11:08.623Z,959.52
2017-01-27T05:12:09.043Z,959.53
2017-01-27T05:13:08.720Z,959.47
2017-01-27T05:14:09.085Z,959.46
2017-01-27T05:15:08.936Z,959.49
2017-01-27T05:16:08.894Z,959.46
2017-01-27T05:17:09.012Z,959.50
2017-01-27T05:18:08.793Z,959.47
2017-01-27T05:19:08.540Z,959.48
2017-01-27T05:20:09.010Z,959.53
2017-01-27T05:21:08.625Z,959.56
2017-01-27T05:22:09.154Z,959.62
2017-01-27T05:23:08.714Z,959.59
2017-01-27T05:24:09.053Z,959.61
2017-01-27T05:25:11.077Z,959.65
2017-01-27T05:26:08.763Z,959.67
2017-01-27T05:27:08.345Z,959.67
2017-01-27T05:28:09.045Z,959.75
2017-01-27T05:29:08.618Z,959.71
2017-01-27T05:30:09.326Z,959.68
2017-01-27T05:31:09.198Z,959.69
2017-01-27T05:32:08.992Z,959.64
2017-01-27T05:33:08.731Z,959.62
2017-01-27T05:34:09.329Z,959.66
2017-01-27T05:35:09.066Z,959.58
2017-01-27T05:36:08.683Z,959.59
2017-01-27T05:37:08.982Z,959.57
2017-01-27T05:38:08.772Z,959.55
2017-01-27T05:39:08.471Z,959.53
2017-01-27T05:40:09.209Z,959.54
2017-01-27T05:41:08.827Z,959.60
2017-01-27T05:42:08.432Z,959.57
2017-01-27T05:43:09.173Z,959.60
2017-01-27T05:44:08.822Z,959.62
2017-01-27T05:45:08.700Z,959.65
2017-01-27T05:46:09.503Z,959.69
2017-01-27T05:47:09.097Z,959.73
2017-01-27T05:48:08.755Z,959.67
2017-01-27T05:49:09.114Z,959.67
2017-01-27T05:50:08.724Z,959.66
2017-01-27T05:51:09.272Z,959.79
2017-01-27T05:52:08.960Z,959.77
2017-01-27T05:53:08.591Z,959.87
2017-01-27T05:54:09.442Z,959.88
2017-01-27T05:55:09.247Z,959.96
2017-01-27T05:56:09.031Z,959.90
2017-01-27T05:57:08.587Z,959.87
2017-01-27T05:58:09.149Z,959.78
2017-01-27T05:59:08.971Z,959.84
2017-01-27T06:00:08.857Z,959.84
2017-01-27T06:01:08.563Z,959.76
2017-01-27T06:02:08.999Z,959.77
2017-01-27T06:03:08.680Z,959.82
2017-01-27T06:04:09.330Z,959.78
2017-01-27T06:05:09.109Z,959.81
2017-01-27T06:06:08.796Z,959.78
2017-01-27T06:07:08.489Z,959.78
2017-01-27T06:08:09.004Z,959.84
2017-01-27T06:09:08.766Z,959.90
2017-01-27T06:10:08.656Z,960.01
2017-01-27T06:11:09.430Z,960.12
2017-01-27T06:12:09.246Z,960.14
2017-01-27T06:13:09.034Z,960.18
2017-01-27T06:14:09.485Z,960.21
2017-01-27T06:15:09.266Z,960.20
2017-01-27T06:16:09.120Z,960.23
2017-01-27T06:17:09.148Z,960.31
2017-01-27T06:18:09.034Z,960.29
2017-01-27T06:19:08.903Z,960.36
2017-01-27T06:20:08.509Z,960.24
2017-01-27T06:21:09.105Z,960.22
2017-01-27T06:22:08.974Z,960.30
2017-01-27T06:23:08.764Z,960.25
2017-01-27T06:24:08.472Z,960.36
2017-01-27T06:25:09.376Z,960.34
2017-01-27T06:26:09.246Z,960.30
2017-01-27T06:27:09.200Z,960.28
2017-01-27T06:28:09.016Z,960.26
2017-01-27T06:29:08.849Z,960.32
2017-01-27T06:30:08.650Z,960.25
2017-01-27T06:31:09.092Z,960.24
2017-01-27T06:32:08.657Z,960.21
2017-01-27T06:33:09.491Z,960.21
2017-01-27T06:34:09.284Z,960.26
2017-01-27T06:35:08.940Z,960.17
2017-01-27T06:36:08.663Z,960.19
2017-01-27T06:37:09.484Z,960.22
2017-01-27T06:38:09.370Z,960.24
2017-01-27T06:39:09.042Z,960.19
2017-01-27T06:40:08.892Z,960.22
2017-01-27T06:41:08.995Z,960.23
2017-01-27T06:42:08.905Z,960.24
2017-01-27T06:43:09.152Z,960.29
2017-01-27T06:44:09.419Z,960.26
2017-01-27T06:45:09.190Z,960.19
2017-01-27T06:46:09.222Z,960.22
2017-01-27T06:47:09.173Z,960.20
2017-01-27T06:48:09.055Z,960.21
2017-01-27T06:49:09.013Z,960.31
2017-01-27T06:50:08.938Z,960.33
2017-01-27T06:51:08.866Z,960.40
2017-01-27T06:52:08.763Z,960.29
2017-01-27T06:53:08.637Z,960.37
2017-01-27T06:54:09.800Z,960.38
2017-01-27T06:55:08.633Z,960.31
2017-01-27T06:56:09.390Z,960.37
2017-01-27T06:57:09.272Z,960.36
2017-01-27T06:58:09.131Z,960.40
2017-01-27T06:59:09.013Z,960.42
2017-01-27T07:00:08.744Z,960.38
2017-01-27T07:01:09.600Z,960.36
2017-01-27T07:02:09.535Z,960.40
2017-01-27T07:03:09.287Z,960.42
2017-01-27T07:04:08.964Z,960.37
2017-01-27T07:05:09.018Z,960.40
2017-01-27T07:06:08.949Z,960.37
2017-01-27T07:07:08.737Z,960.45
2017-01-27T07:08:09.204Z,960.38
2017-01-27T07:09:08.819Z,960.37
2017-01-27T07:10:08.513Z,960.33
2017-01-27T07:11:09.316Z,960.35
2017-01-27T07:12:09.226Z,960.30
2017-01-27T07:13:08.905Z,960.31
2017-01-27T07:14:08.834Z,960.31
2017-01-27T07:15:08.567Z,960.35
2017-01-27T07:16:09.037Z,960.33
2017-01-27T07:17:09.011Z,960.35
2017-01-27T07:18:08.897Z,960.39
2017-01-27T07:19:08.525Z,960.36
2017-01-27T07:20:09.304Z,960.33
2017-01-27T07:21:09.162Z,960.34
2017-01-27T07:22:09.108Z,960.34
2017-01-27T07:23:08.877Z,960.38
2017-01-27T07:24:08.688Z,960.32
2017-01-27T07:25:09.555Z,960.31
2017-01-27T07:26:09.271Z,960.35
2017-01-27T07:27:08.890Z,960.25
2017-01-27T07:28:08.791Z,960.29
2017-01-27T07:29:08.964Z,960.25
2017-01-27T07:30:08.765Z,960.21
2017-01-27T07:31:08.615Z,960.19
2017-01-27T07:32:09.578Z,960.23
2017-01-27T07:33:09.188Z,960.19
2017-01-27T07:34:08.923Z,960.20
2017-01-27T07:35:08.762Z,960.19
2017-01-27T07:36:08.930Z,960.22
2017-01-27T07:37:08.710Z,960.25
2017-01-27T07:38:09.543Z,960.24
2017-01-27T07:39:09.659Z,960.22
2017-01-27T07:40:09.540Z,960.27
2017-01-27T07:41:09.357Z,960.29
2017-01-27T07:42:09.221Z,960.28
2017-01-27T07:43:09.035Z,960.29
2017-01-27T07:44:08.524Z,960.31
2017-01-27T07:45:09.156Z,960.32
2017-01-27T07:46:09.057Z,960.30
2017-01-27T07:47:08.969Z,960.31
2017-01-27T07:48:08.577Z,960.32
2017-01-27T07:49:09.261Z,960.32
2017-01-27T07:50:09.096Z,960.34
2017-01-27T07:51:08.664Z,960.35
2017-01-27T07:52:09.407Z,960.29
2017-01-27T07:53:09.264Z,960.26
2017-01-27T07:54:09.090Z,960.26
2017-01-27T07:55:08.940Z,960.27
2017-01-27T07:56:08.728Z,960.30
2017-01-27T07:57:09.671Z,960.33
2017-01-27T07:58:09.410Z,960.36
2017-01-27T07:59:09.229Z,960.41
2017-01-27T08:00:09.111Z,960.42
2017-01-27T08:01:08.822Z,960.43
2017-01-27T08:02:08.573Z,960.43
2017-01-27T08:03:09.470Z,960.37
2017-01-27T08:04:09.202Z,960.41
2017-01-27T08:05:09.093Z,960.41
2017-01-27T08:06:09.008Z,960.41
2017-01-27T08:07:08.802Z,960.37
2017-01-27T08:08:08.550Z,960.38
2017-01-27T08:09:08.948Z,960.36
2017-01-27T08:10:08.995Z,960.36
2017-01-27T08:11:08.724Z,960.39
2017-01-27T08:12:09.528Z,960.41
2017-01-27T08:13:09.136Z,960.44
2017-01-27T08:14:08.992Z,960.54
2017-01-27T08:15:08.867Z,960.48
2017-01-27T08:16:08.713Z,960.49
2017-01-27T08:17:09.690Z,960.53
2017-01-27T08:18:09.399Z,960.46
2017-01-27T08:19:09.243Z,960.50
2017-01-27T08:20:09.240Z,960.48
2017-01-27T08:21:09.382Z,960.48
2017-01-27T08:22:09.565Z,960.46
2017-01-27T08:23:10.348Z,960.47
2017-01-27T08:24:09.731Z,960.44
2017-01-27T08:25:08.740Z,960.45
2017-01-27T08:26:09.519Z,960.47
2017-01-27T08:27:09.474Z,960.52
2017-01-27T08:28:08.751Z,960.51
2017-01-27T08:29:09.654Z,960.57
2017-01-27T08:30:09.494Z,960.53
2017-01-27T08:31:09.465Z,960.59
2017-01-27T08:32:09.209Z,960.52
2017-01-27T08:33:08.946Z,960.56
2017-01-27T08:34:08.659Z,960.53
2017-01-27T08:35:09.350Z,960.54
2017-01-27T08:36:09.411Z,960.58
2017-01-27T08:37:09.470Z,960.47
2017-01-27T08:38:09.501Z,960.49
2017-01-27T08:39:09.494Z,960.48
2017-01-27T08:40:09.499Z,960.48
2017-01-27T08:41:09.354Z,960.51
2017-01-27T08:42:09.203Z,960.48
2017-01-27T08:43:08.701Z,960.48
2017-01-27T08:44:09.734Z,960.47
2017-01-27T08:45:09.672Z,960.53
2017-01-27T08:46:09.528Z,960.52
2017-01-27T08:47:09.430Z,960.51
2017-01-27T08:48:09.301Z,960.51
2017-01-27T08:49:09.200Z,960.49
2017-01-27T08:50:08.973Z,960.50
2017-01-27T08:51:08.955Z,960.50
2017-01-27T08:52:08.760Z,960.50
2017-01-27T08:53:08.438Z,960.53
2017-01-27T08:54:09.445Z,960.55
2017-01-27T08:55:09.496Z,960.54
2017-01-27T08:56:09.254Z,960.57
2017-01-27T08:57:09.114Z,960.56
2017-01-27T08:58:09.203Z,960.53
2017-01-27T08:59:09.385Z,960.58
2017-01-27T09:00:09.324Z,960.51
2017-01-27T09:01:09.222Z,960.55
2017-01-27T09:02:09.224Z,960.60
2017-01-27T09:03:09.079Z,960.56
2017-01-27T09:04:09.065Z,960.54
2017-01-27T09:05:09.138Z,960.46
2017-01-27T09:06:08.997Z,960.52
2017-01-27T09:07:08.961Z,960.51
2017-01-27T09:08:08.805Z,960.52
2017-01-27T09:09:08.628Z,960.51
2017-01-27T09:10:09.531Z,960.43
2017-01-27T09:11:09.355Z,960.44
2017-01-27T09:12:09.475Z,960.43
2017-01-27T09:13:09.758Z,960.43
2017-01-27T09:14:09.519Z,960.43
2017-01-27T09:15:09.561Z,960.44
2017-01-27T09:16:09.544Z,960.45
2017-01-27T09:17:09.470Z,960.41
2017-01-27T09:18:08.929Z,960.40
2017-01-27T09:19:08.846Z,960.41
2017-01-27T09:20:08.727Z,960.43
2017-01-27T09:21:08.450Z,960.42
2017-01-27T09:22:09.444Z,960.43
2017-01-27T09:23:09.495Z,960.47
2017-01-27T09:24:09.406Z,960.45
2017-01-27T09:25:09.252Z,960.39
2017-01-27T09:26:09.257Z,960.44
2017-01-27T09:27:09.137Z,960.37
2017-01-27T09:28:08.999Z,960.35
2017-01-27T09:29:09.303Z,960.39
2017-01-27T09:30:09.172Z,960.38
2017-01-27T09:31:08.963Z,960.38
2017-01-27T09:32:08.924Z,960.40
2017-01-27T09:33:08.793Z,960.38
2017-01-27T09:34:08.466Z,960.31
2017-01-27T09:35:09.455Z,960.37
2017-01-27T09:36:09.314Z,960.35
2017-01-27T09:37:09.198Z,960.35
2017-01-27T09:38:09.023Z,960.34
2017-01-27T09:39:09.305Z,960.36
2017-01-27T09:40:09.105Z,960.37
2017-01-27T09:41:09.291Z,960.31
2017-01-27T09:42:09.135Z,960.37
2017-01-27T09:43:09.490Z,960.34
2017-01-27T09:44:09.403Z,960.34
2017-01-27T09:45:09.533Z,960.35
2017-01-27T09:46:09.618Z,960.32
2017-01-27T09:47:09.366Z,960.35
2017-01-27T09:48:09.403Z,960.38
2017-01-27T09:49:09.452Z,960.42
2017-01-27T09:50:09.295Z,960.38
2017-01-27T09:51:09.222Z,960.38
2017-01-27T09:52:08.784Z,960.43
2017-01-27T09:53:08.567Z,960.49
2017-01-27T09:54:09.739Z,960.38
2017-01-27T09:55:09.782Z,960.38
2017-01-27T09:56:08.622Z,960.37
2017-01-27T09:57:09.631Z,960.36
2017-01-27T09:58:09.541Z,960.34
2017-01-27T09:59:09.144Z,960.34
2017-01-27T10:00:08.926Z,960.34
2017-01-27T10:01:08.476Z,960.34
2017-01-27T10:02:09.525Z,960.30
2017-01-27T10:03:09.634Z,960.34
2017-01-27T10:04:09.314Z,960.31
2017-01-27T10:05:09.323Z,960.31
2017-01-27T10:06:09.125Z,960.28
2017-01-27T10:07:08.986Z,960.26
2017-01-27T10:08:08.825Z,960.32
2017-01-27T10:09:08.416Z,960.27
2017-01-27T10:10:09.272Z,960.30
2017-01-27T10:11:09.044Z,960.28
2017-01-27T10:12:08.841Z,960.24
2017-01-27T10:13:08.885Z,960.21
2017-01-27T10:14:08.668Z,960.24
2017-01-27T10:15:09.657Z,960.20
2017-01-27T10:16:09.675Z,960.19
2017-01-27T10:17:09.217Z,960.18
2017-01-27T10:18:08.975Z,960.17
2017-01-27T10:19:08.536Z,960.15
2017-01-27T10:20:08.975Z,960.10
2017-01-27T10:21:08.475Z,960.05
2017-01-27T10:22:09.136Z,960.06
2017-01-27T10:23:08.901Z,960.07
2017-01-27T10:24:08.744Z,960.03
2017-01-27T10:25:09.379Z,960.03
2017-01-27T10:26:08.974Z,959.99
2017-01-27T10:27:08.607Z,959.98
2017-01-27T10:28:09.180Z,959.96
2017-01-27T10:29:08.850Z,959.98
2017-01-27T10:30:08.417Z,959.95
2017-01-27T10:31:09.157Z,959.98
2017-01-27T10:32:09.227Z,959.99
2017-01-27T10:33:08.885Z,959.89
2017-01-27T10:34:08.478Z,959.93
2017-01-27T10:35:09.106Z,959.88
2017-01-27T10:36:08.744Z,959.88
2017-01-27T10:37:09.188Z,959.85
2017-01-27T10:38:08.889Z,959.80
2017-01-27T10:39:08.848Z,959.80
2017-01-27T10:40:08.425Z,959.77
2017-01-27T10:41:09.299Z,959.78
2017-01-27T10:42:09.158Z,959.76
2017-01-27T10:43:08.685Z,959.76
2017-01-27T10:44:18.160Z,959.73
2017-01-27T10:45:09.322Z,959.68
2017-01-27T10:46:09.009Z,959.70
2017-01-27T10:47:08.828Z,959.65
2017-01-27T10:48:08.319Z,959.58
2017-01-27T10:49:08.804Z,959.60
2017-01-27T10:50:08.396Z,959.55
2017-01-27T10:51:09.162Z,959.56
2017-01-27T10:52:08.999Z,959.55
2017-01-27T10:53:08.579Z,959.55
2017-01-27T10:54:09.622Z,959.63
2017-01-27T10:55:09.716Z,959.54
2017-01-27T10:56:09.607Z,959.56
2017-01-27T10:57:09.427Z,959.50
2017-01-27T10:58:09.206Z,959.47
2017-01-27T10:59:08.743Z,959.47
2017-01-27T11:00:09.479Z,959.42
2017-01-27T11:01:09.216Z,959.39
2017-01-27T11:02:08.948Z,959.35
2017-01-27T11:03:08.783Z,959.38
2017-01-27T11:04:08.535Z,959.37
2017-01-27T11:05:09.419Z,959.28
2017-01-27T11:06:09.178Z,959.29
2017-01-27T11:07:08.865Z,959.24
2017-01-27T11:08:08.427Z,959.25
2017-01-27T11:09:09.179Z,959.26
2017-01-27T11:10:08.728Z,959.22
2017-01-27T11:11:09.194Z,959.20
2017-01-27T11:12:08.932Z,959.24
2017-01-27T11:13:08.574Z,959.17
2017-01-27T11:14:10.701Z,959.16
2017-01-27T11:15:09.226Z,959.18
2017-01-27T11:16:09.056Z,959.19
2017-01-27T11:17:08.958Z,959.16
2017-01-27T11:18:08.416Z,959.17
2017-01-27T11:19:09.079Z,959.18
2017-01-27T11:20:08.608Z,959.20
2017-01-27T11:21:09.418Z,959.21
2017-01-27T11:22:09.306Z,959.16
2017-01-27T11:23:09.006Z,959.16
2017-01-27T11:24:08.621Z,959.14
2017-01-27T11:25:09.585Z,959.15
2017-01-27T11:26:09.248Z,959.13
2017-01-27T11:27:09.018Z,959.11
2017-01-27T11:28:08.411Z,959.04
2017-01-27T11:29:09.137Z,959.07
2017-01-27T11:30:08.946Z,959.06
2017-01-27T11:31:08.561Z,959.01
2017-01-27T11:32:09.264Z,959.03
2017-01-27T11:33:08.862Z,958.98
2017-01-27T11:34:08.557Z,958.97
2017-01-27T11:35:09.426Z,958.92
2017-01-27T11:36:09.108Z,958.92
2017-01-27T11:37:08.915Z,958.97
2017-01-27T11:38:08.522Z,958.94
2017-01-27T11:39:09.706Z,958.97
2017-01-27T11:40:09.596Z,958.98
2017-01-27T11:41:09.214Z,958.96
2017-01-27T11:42:09.048Z,958.99
2017-01-27T11:43:09.020Z,959.02
2017-01-27T11:44:09.638Z,959.03
2017-01-27T11:45:09.429Z,959.03
2017-01-27T11:46:09.382Z,959.01
2017-01-27T11:47:09.315Z,959.03
2017-01-27T11:48:09.049Z,958.99
2017-01-27T11:49:08.583Z,959.01
2017-01-27T11:50:09.426Z,958.99
2017-01-27T11:51:09.196Z,958.99
2017-01-27T11:52:08.824Z,958.97
2017-01-27T11:53:08.515Z,958.96
2017-01-27T11:54:09.409Z,958.93
2017-01-27T11:55:09.102Z,958.94
2017-01-27T11:56:08.801Z,958.96
2017-01-27T11:57:08.457Z,959.00
2017-01-27T11:58:09.256Z,958.92
2017-01-27T11:59:09.147Z,958.93
2017-01-27T12:00:08.941Z,958.87
2017-01-27T12:01:08.752Z,958.88
2017-01-27T12:02:08.388Z,958.83
2017-01-27T12:03:08.923Z,958.80
2017-01-27T12:04:08.601Z,958.81
2017-01-27T12:05:09.848Z,958.77
2017-01-27T12:06:08.591Z,958.79
2017-01-27T12:07:09.622Z,958.75
2017-01-27T12:08:09.714Z,958.74
2017-01-27T12:09:10.403Z,958.74
2017-01-27T12:10:09.271Z,958.70
2017-01-27T12:11:08.918Z,958.71
2017-01-27T12:12:09.415Z,958.73
2017-01-27T12:13:09.264Z,958.68
2017-01-27T12:14:09.620Z,958.68
2017-01-27T12:15:09.543Z,958.62
2017-01-27T12:16:09.499Z,958.64
2017-01-27T12:17:09.466Z,958.64
2017-01-27T12:18:09.439Z,958.64
2017-01-27T12:19:09.240Z,958.61
2017-01-27T12:20:09.020Z,958.66
2017-01-27T12:21:08.570Z,958.66
2017-01-27T12:22:09.428Z,958.56
2017-01-27T12:23:09.280Z,958.55
2017-01-27T12:24:09.061Z,958.51
2017-01-27T12:25:08.870Z,958.57
2017-01-27T12:26:08.204Z,958.55
2017-01-27T12:27:09.009Z,958.55
2017-01-27T12:28:08.592Z,958.55